Time;durP1;ratioP1;P1;durP2;ratioP2;P2;SDS_P1;SDS_P2;PMS_P1;PMS_P2;Temp;Humidity;BMP_temperature;BMP_pressure;BME280_temperature;BME280_humidity;BME280_pressure;Samples;Min_cycle;Max_cycle;Signal;HPM_P1;HPM_P2
2022/01/29 00:00:12;;;;;;;0.60;0.60;;;3.60;99.90;;;;;;5036665;28;20452;-67
2022/01/29 00:03:01;;;;;;;0.40;0.40;;;3.70;99.90;;;;;;5036012;28;20472;-67
2022/01/29 00:05:47;;;;;;;0.83;0.50;;;3.70;99.90;;;;;;5035767;28;20448;-68
2022/01/29 00:08:34;;;;;;;0.50;0.50;;;3.60;99.90;;;;;;5035802;28;20436;-66
2022/01/29 00:11:27;;;;;;;0.40;0.40;;;3.70;99.90;;;;;;5035468;28;20417;-69
2022/01/29 00:14:14;;;;;;;0.40;0.40;;;3.70;99.90;;;;;;5035157;28;20449;-67
2022/01/29 00:17:01;;;;;;;0.40;0.40;;;3.70;99.90;;;;;;5035710;28;20437;-67
2022/01/29 00:19:49;;;;;;;0.40;0.40;;;3.80;99.90;;;;;;5042043;28;20807;-67
2022/01/29 00:22:36;;;;;;;0.40;0.40;;;3.80;99.90;;;;;;5055127;28;20455;-69
2022/01/29 00:25:22;;;;;;;0.40;0.40;;;3.80;99.90;;;;;;5055561;28;20834;-68
2022/01/29 00:28:09;;;;;;;0.40;0.40;;;3.80;99.90;;;;;;5056676;28;20987;-68
2022/01/29 00:30:57;;;;;;;0.40;0.40;;;3.90;99.90;;;;;;5054784;28;20490;-68
2022/01/29 00:33:44;;;;;;;0.40;0.40;;;3.90;99.90;;;;;;5055398;28;20810;-68
2022/01/29 00:36:32;;;;;;;0.40;0.40;;;3.90;99.90;;;;;;5055047;28;20863;-68
2022/01/29 00:39:19;;;;;;;0.40;0.40;;;3.90;99.90;;;;;;5054638;28;20439;-68
2022/01/29 00:42:06;;;;;;;0.40;0.40;;;3.90;99.90;;;;;;5054805;28;20467;-68
2022/01/29 00:44:53;;;;;;;0.40;0.40;;;4.00;99.90;;;;;;5054955;28;20455;-68
2022/01/29 00:47:40;;;;;;;0.40;0.40;;;4.00;99.90;;;;;;5054585;28;20440;-68
2022/01/29 00:50:27;;;;;;;0.40;0.40;;;4.00;99.90;;;;;;5055212;28;20485;-67
2022/01/29 00:53:16;;;;;;;0.40;0.40;;;4.20;99.90;;;;;;5055325;28;20427;-68
2022/01/29 00:56:06;;;;;;;0.40;0.40;;;4.00;99.90;;;;;;5055023;28;20420;-67
2022/01/29 00:58:53;;;;;;;0.40;0.40;;;4.10;99.90;;;;;;5054523;28;20961;-67
2022/01/29 01:01:40;;;;;;;0.97;0.90;;;4.10;99.90;;;;;;5054981;28;20491;-67
2022/01/29 01:04:27;;;;;;;0.40;0.40;;;4.20;99.90;;;;;;5054470;28;20948;-67
2022/01/29 01:07:14;;;;;;;0.40;0.40;;;4.30;99.90;;;;;;5054422;28;20467;-67
2022/01/29 01:10:03;;;;;;;0.40;0.40;;;4.20;99.90;;;;;;5054800;28;20420;-68
2022/01/29 01:12:50;;;;;;;1.60;1.50;;;4.20;99.90;;;;;;5055100;28;20514;-68
2022/01/29 01:15:37;;;;;;;0.40;0.40;;;4.20;99.90;;;;;;5055877;28;20424;-69
2022/01/29 01:18:24;;;;;;;0.40;0.40;;;4.20;99.90;;;;;;5055319;28;20450;-70
2022/01/29 01:21:11;;;;;;;0.40;0.40;;;4.20;99.90;;;;;;5035389;28;20812;-67
2022/01/29 01:23:58;;;;;;;0.40;0.40;;;4.20;99.90;;;;;;5033990;28;20952;-69
2022/01/29 01:26:47;;;;;;;0.40;0.40;;;4.20;99.90;;;;;;5033883;28;20500;-68
2022/01/29 01:29:33;;;;;;;0.40;0.40;;;4.20;99.90;;;;;;5033754;28;20474;-68
2022/01/29 01:32:20;;;;;;;0.40;0.40;;;4.20;99.90;;;;;;5034135;28;20961;-68
2022/01/29 01:35:14;;;;;;;0.40;0.40;;;4.30;99.90;;;;;;5034290;28;20421;-67
2022/01/29 01:38:10;;;;;;;0.40;0.40;;;4.20;99.90;;;;;;5033944;28;20436;-66
2022/01/29 01:41:02;;;;;;;0.40;0.40;;;4.30;99.90;;;;;;5033615;28;20425;-67
2022/01/29 01:43:50;;;;;;;0.40;0.40;;;4.30;99.90;;;;;;5033854;28;20468;-68
2022/01/29 01:46:37;;;;;;;0.40;0.40;;;4.30;99.90;;;;;;5034257;28;20446;-68
2022/01/29 01:49:24;;;;;;;0.40;0.40;;;4.30;99.90;;;;;;5033418;28;20957;-67
2022/01/29 01:52:13;;;;;;;0.40;0.40;;;4.30;99.90;;;;;;5033468;28;20483;-68
2022/01/29 01:55:00;;;;;;;0.40;0.40;;;4.20;99.90;;;;;;5033860;28;21019;-67
2022/01/29 01:57:47;;;;;;;0.40;0.40;;;4.30;99.90;;;;;;5033250;28;20980;-68
2022/01/29 02:00:35;;;;;;;0.40;0.40;;;4.30;99.90;;;;;;5033536;28;20440;-68
2022/01/29 02:03:22;;;;;;;0.40;0.40;;;4.20;99.90;;;;;;5033785;28;20516;-69
2022/01/29 02:06:09;;;;;;;0.40;0.40;;;4.30;99.90;;;;;;5033324;28;20460;-68
2022/01/29 02:08:59;;;;;;;0.50;0.50;;;4.20;99.90;;;;;;5033203;28;20961;-66
2022/01/29 02:11:50;;;;;;;0.40;0.40;;;4.30;99.90;;;;;;5033911;28;20436;-67
2022/01/29 02:14:38;;;;;;;0.40;0.40;;;4.40;99.90;;;;;;5033744;28;20433;-67
2022/01/29 02:17:27;;;;;;;0.40;0.40;;;4.20;99.90;;;;;;5032805;28;20441;-67
2022/01/29 02:20:14;;;;;;;0.40;0.40;;;4.20;99.90;;;;;;5053682;28;20428;-68
2022/01/29 02:23:03;;;;;;;0.40;0.40;;;4.20;99.90;;;;;;5066128;28;20486;-67
2022/01/29 02:25:50;;;;;;;0.40;0.40;;;4.20;99.90;;;;;;5069603;28;20455;-67
2022/01/29 02:28:37;;;;;;;0.47;0.47;;;4.20;99.90;;;;;;5068911;28;20429;-67
2022/01/29 02:31:24;;;;;;;0.40;0.40;;;4.20;99.90;;;;;;5070515;28;20482;-67
2022/01/29 02:34:11;;;;;;;0.40;0.40;;;4.30;99.90;;;;;;5069343;28;20510;-66
2022/01/29 02:36:58;;;;;;;0.40;0.40;;;4.30;99.90;;;;;;5070169;28;20478;-67
2022/01/29 02:39:46;;;;;;;0.40;0.40;;;4.20;99.90;;;;;;5053238;28;20930;-68
2022/01/29 02:42:33;;;;;;;0.40;0.40;;;4.20;99.90;;;;;;5048915;28;20453;-68
2022/01/29 02:45:20;;;;;;;0.40;0.40;;;4.30;99.90;;;;;;5045253;28;20417;-68
2022/01/29 02:48:07;;;;;;;0.40;0.40;;;4.30;99.90;;;;;;5046401;28;20459;-68
2022/01/29 02:50:55;;;;;;;0.40;0.40;;;4.30;99.90;;;;;;5046744;28;20425;-68
2022/01/29 02:53:43;;;;;;;0.40;0.40;;;4.30;99.90;;;;;;5047994;28;20417;-69
2022/01/29 02:56:31;;;;;;;0.40;0.40;;;4.20;99.90;;;;;;5052755;28;20446;-69
2022/01/29 02:59:18;;;;;;;0.40;0.40;;;4.20;99.90;;;;;;5052073;28;21003;-69
2022/01/29 03:02:05;;;;;;;0.40;0.40;;;4.20;99.90;;;;;;5052062;28;20429;-68
2022/01/29 03:04:51;;;;;;;0.40;0.40;;;4.20;99.90;;;;;;5051598;28;21007;-69
2022/01/29 03:07:38;;;;;;;5.13;1.60;;;4.20;99.90;;;;;;5051866;28;20496;-68
2022/01/29 03:10:26;;;;;;;0.50;0.50;;;4.30;99.90;;;;;;5051953;28;20500;-67
2022/01/29 03:13:14;;;;;;;0.40;0.40;;;4.30;99.90;;;;;;5052321;28;20496;-68
2022/01/29 03:16:01;;;;;;;0.40;0.40;;;4.30;99.90;;;;;;5051664;28;20456;-68
2022/01/29 03:18:48;;;;;;;0.50;0.50;;;4.20;99.90;;;;;;5051097;28;20456;-68
2022/01/29 03:21:35;;;;;;;0.40;0.40;;;4.40;99.90;;;;;;5032346;28;20414;-68
2022/01/29 03:24:22;;;;;;;0.40;0.40;;;4.30;99.90;;;;;;5025583;28;20504;-68
2022/01/29 03:27:09;;;;;;;0.40;0.40;;;4.30;99.90;;;;;;5014722;28;20445;-68
2022/01/29 03:29:57;;;;;;;0.73;0.60;;;4.20;99.90;;;;;;5014514;28;20874;-68
2022/01/29 03:32:44;;;;;;;0.40;0.40;;;4.20;99.90;;;;;;5014672;28;20844;-68
2022/01/29 03:35:31;;;;;;;0.40;0.40;;;4.10;99.90;;;;;;5014664;28;20425;-68
2022/01/29 03:38:18;;;;;;;0.40;0.40;;;4.10;99.90;;;;;;5014786;28;21001;-69
2022/01/29 03:41:07;;;;;;;0.40;0.40;;;4.10;99.90;;;;;;5014430;28;20432;-69
2022/01/29 03:43:57;;;;;;;0.40;0.40;;;4.10;99.90;;;;;;5013250;28;20458;-68
2022/01/29 03:46:46;;;;;;;0.40;0.40;;;4.20;99.90;;;;;;5013565;28;20446;-68
2022/01/29 03:49:33;;;;;;;0.40;0.40;;;4.20;99.90;;;;;;5014045;28;20430;-68
2022/01/29 03:52:19;;;;;;;0.40;0.40;;;4.20;99.90;;;;;;5014769;28;20422;-68
2022/01/29 03:55:07;;;;;;;0.40;0.40;;;4.20;99.90;;;;;;5014311;28;20473;-68
2022/01/29 03:57:54;;;;;;;0.50;0.50;;;4.10;99.90;;;;;;5012427;28;20446;-68
2022/01/29 04:00:41;;;;;;;1.80;1.20;;;4.10;99.90;;;;;;5013687;28;20476;-68
2022/01/29 04:03:29;;;;;;;0.40;0.40;;;4.20;99.90;;;;;;5013482;28;20488;-68
2022/01/29 04:06:16;;;;;;;1.00;0.90;;;4.20;99.90;;;;;;5017480;28;20426;-68
2022/01/29 04:09:05;;;;;;;0.40;0.40;;;4.10;99.90;;;;;;5017343;28;20418;-66
2022/01/29 04:11:52;;;;;;;0.40;0.40;;;4.10;99.90;;;;;;5017798;28;20433;-67
2022/01/29 04:14:39;;;;;;;0.40;0.40;;;4.20;99.90;;;;;;5018141;28;20418;-67
2022/01/29 04:17:26;;;;;;;0.50;0.50;;;4.20;99.90;;;;;;5017082;28;20457;-67
2022/01/29 04:20:14;;;;;;;0.40;0.40;;;4.20;99.90;;;;;;5039012;28;20428;-68
2022/01/29 04:23:01;;;;;;;0.40;0.40;;;4.20;99.90;;;;;;5056136;28;20487;-67
2022/01/29 04:25:51;;;;;;;0.70;0.70;;;4.10;99.90;;;;;;5055966;28;20435;-67
2022/01/29 04:28:41;;;;;;;0.50;0.50;;;4.20;99.90;;;;;;5055708;28;20425;-67
2022/01/29 04:31:36;;;;;;;0.40;0.40;;;4.20;99.90;;;;;;5055869;28;21004;-68
2022/01/29 04:34:23;;;;;;;0.40;0.40;;;4.20;99.90;;;;;;5054896;28;20481;-67
2022/01/29 04:37:12;;;;;;;0.40;0.40;;;4.20;99.90;;;;;;5055374;28;20455;-67
2022/01/29 04:39:59;;;;;;;0.40;0.40;;;4.20;99.90;;;;;;5054839;28;20432;-68
2022/01/29 04:42:45;;;;;;;0.40;0.40;;;4.20;99.90;;;;;;5055163;28;21004;-67
2022/01/29 04:45:33;;;;;;;0.47;0.47;;;4.20;99.90;;;;;;5056000;28;20486;-68
2022/01/29 04:48:20;;;;;;;0.40;0.40;;;4.20;99.90;;;;;;5055243;28;20952;-68
2022/01/29 04:51:07;;;;;;;0.40;0.40;;;4.30;99.90;;;;;;5055044;28;20425;-68
2022/01/29 04:53:55;;;;;;;3.10;1.13;;;4.30;99.90;;;;;;5055844;28;20428;-67
2022/01/29 04:56:42;;;;;;;0.50;0.50;;;4.30;99.90;;;;;;5055934;28;20440;-68
2022/01/29 04:59:29;;;;;;;0.40;0.40;;;4.30;99.90;;;;;;5055289;28;20421;-68
2022/01/29 05:02:16;;;;;;;0.40;0.40;;;4.20;99.90;;;;;;5055184;28;20447;-68
2022/01/29 05:05:03;;;;;;;0.40;0.40;;;4.20;99.90;;;;;;5055148;28;20416;-67
2022/01/29 05:07:50;;;;;;;0.40;0.40;;;4.20;99.90;;;;;;5054977;28;20455;-68
2022/01/29 05:10:38;;;;;;;0.50;0.50;;;4.20;99.90;;;;;;5054690;28;20416;-68
2022/01/29 05:13:28;;;;;;;0.50;0.50;;;4.20;99.90;;;;;;5054948;28;20933;-68
2022/01/29 05:16:36;;;;;;;0.40;0.40;;;4.10;99.90;;;;;;5055142;28;20944;-68
2022/01/29 05:28:38;;;;;;;0.43;0.43;;;4.20;99.90;;;;;;5045835;28;20712;-68
2022/01/29 05:31:25;;;;;;;0.40;0.40;;;4.20;99.90;;;;;;5033868;28;20417;-68
2022/01/29 05:34:12;;;;;;;1.73;0.93;;;4.20;99.90;;;;;;5041341;28;20452;-68
2022/01/29 05:37:01;;;;;;;0.90;0.90;;;4.20;99.90;;;;;;5042489;28;20444;-68
2022/01/29 05:39:48;;;;;;;0.40;0.40;;;4.20;99.90;;;;;;5041734;28;20804;-68
2022/01/29 05:42:35;;;;;;;0.70;0.70;;;4.20;99.90;;;;;;5042681;28;20516;-68
2022/01/29 05:45:23;;;;;;;0.40;0.40;;;4.20;99.90;;;;;;5036322;28;20425;-68
2022/01/29 05:48:10;;;;;;;0.40;0.40;;;4.20;99.90;;;;;;5034051;28;20475;-68
2022/01/29 05:50:57;;;;;;;0.40;0.40;;;4.30;99.90;;;;;;5034468;28;20445;-69
2022/01/29 05:53:44;;;;;;;0.60;0.60;;;4.20;99.90;;;;;;5033671;28;20455;-68
2022/01/29 05:56:31;;;;;;;0.40;0.40;;;4.30;99.90;;;;;;5033165;28;20498;-68
2022/01/29 05:59:18;;;;;;;1.43;1.03;;;4.20;99.90;;;;;;5032808;28;20424;-68
2022/01/29 06:02:06;;;;;;;0.50;0.50;;;4.30;99.90;;;;;;5033430;28;20860;-68
2022/01/29 06:04:53;;;;;;;0.50;0.50;;;4.20;99.90;;;;;;5033494;28;20528;-68
2022/01/29 06:07:40;;;;;;;0.50;0.50;;;4.20;99.90;;;;;;5033091;28;20469;-67
2022/01/29 06:10:27;;;;;;;0.40;0.40;;;4.20;99.90;;;;;;5032832;28;20429;-68
2022/01/29 06:13:16;;;;;;;0.40;0.40;;;4.20;99.90;;;;;;5032925;28;20417;-68
2022/01/29 06:16:03;;;;;;;0.40;0.40;;;4.30;99.90;;;;;;5033153;28;20421;-67
2022/01/29 06:18:51;;;;;;;2.57;2.37;;;4.20;99.90;;;;;;5032405;28;20478;-68
2022/01/29 06:21:38;;;;;;;0.40;0.40;;;4.20;99.90;;;;;;5014437;28;20476;-68
2022/01/29 06:24:25;;;;;;;0.50;0.50;;;4.30;99.90;;;;;;5014407;28;20532;-68
2022/01/29 06:27:12;;;;;;;0.40;0.40;;;4.20;99.90;;;;;;5014071;28;20496;-68
2022/01/29 06:29:59;;;;;;;0.40;0.40;;;4.20;99.90;;;;;;5013395;28;20430;-69
2022/01/29 06:32:45;;;;;;;0.40;0.40;;;4.30;99.90;;;;;;5014253;28;20985;-68
2022/01/29 06:35:34;;;;;;;10.20;1.43;;;4.30;99.90;;;;;;5014071;28;20954;-68
2022/01/29 06:38:22;;;;;;;0.40;0.40;;;4.20;99.90;;;;;;5016574;28;20520;-68
2022/01/29 06:41:08;;;;;;;1.27;1.27;;;4.10;99.90;;;;;;5029529;28;20430;-67
2022/01/29 06:43:55;;;;;;;0.40;0.40;;;4.10;99.90;;;;;;5031422;28;20492;-68
2022/01/29 06:46:42;;;;;;;0.40;0.40;;;4.20;99.90;;;;;;5030051;28;20446;-68
2022/01/29 06:49:29;;;;;;;0.60;0.60;;;4.10;99.90;;;;;;5030651;28;20430;-68
2022/01/29 06:52:17;;;;;;;0.60;0.60;;;4.10;99.90;;;;;;5017954;28;20426;-68
2022/01/29 06:55:05;;;;;;;0.40;0.40;;;4.10;99.90;;;;;;5013344;28;20418;-68
2022/01/29 06:57:53;;;;;;;0.50;0.50;;;4.10;99.90;;;;;;5014048;28;20453;-67
2022/01/29 07:00:39;;;;;;;0.90;0.90;;;4.20;99.90;;;;;;5013353;28;20969;-68
2022/01/29 07:03:26;;;;;;;0.40;0.40;;;4.20;99.90;;;;;;5014082;28;20982;-67
2022/01/29 07:06:13;;;;;;;0.70;0.70;;;4.20;99.90;;;;;;5013278;28;20548;-67
2022/01/29 07:09:01;;;;;;;0.47;0.47;;;4.20;99.90;;;;;;5013273;28;20422;-68
2022/01/29 07:11:54;;;;;;;0.40;0.40;;;4.30;99.90;;;;;;5013866;28;20808;-69
2022/01/29 07:14:42;;;;;;;0.40;0.40;;;4.30;99.90;;;;;;5014579;28;20441;-68
2022/01/29 07:17:29;;;;;;;0.40;0.40;;;4.30;99.90;;;;;;5013557;28;20446;-68
2022/01/29 07:20:15;;;;;;;0.50;0.50;;;4.30;99.90;;;;;;5035489;28;20433;-68
2022/01/29 07:23:06;;;;;;;0.90;0.90;;;4.30;99.90;;;;;;5052705;28;20460;-69
2022/01/29 07:25:54;;;;;;;0.60;0.60;;;4.40;99.90;;;;;;5052927;28;20443;-68
2022/01/29 07:28:41;;;;;;;0.60;0.60;;;4.40;99.90;;;;;;5051881;28;20990;-68
2022/01/29 07:31:28;;;;;;;0.40;0.40;;;4.40;99.90;;;;;;5052825;28;20439;-68
2022/01/29 07:34:15;;;;;;;0.60;0.60;;;4.40;99.90;;;;;;5052050;28;20750;-69
2022/01/29 07:37:03;;;;;;;0.40;0.40;;;4.40;99.90;;;;;;5053271;28;20452;-68
2022/01/29 07:39:49;;;;;;;0.40;0.40;;;4.40;99.90;;;;;;5056593;28;20427;-68
2022/01/29 07:42:38;;;;;;;1.77;1.00;;;4.40;99.90;;;;;;5076153;28;20432;-68
2022/01/29 07:45:26;;;;;;;0.50;0.50;;;4.40;99.90;;;;;;5075253;28;20459;-68
2022/01/29 07:48:13;;;;;;;1.67;1.07;;;4.50;99.90;;;;;;5076245;28;20443;-67
2022/01/29 07:51:00;;;;;;;0.50;0.50;;;4.30;99.90;;;;;;5076269;28;20594;-69
2022/01/29 07:53:47;;;;;;;0.50;0.50;;;4.40;99.90;;;;;;5077005;28;20430;-68
2022/01/29 07:56:34;;;;;;;2.53;1.73;;;4.40;99.90;;;;;;5076472;28;20493;-67
2022/01/29 07:59:22;;;;;;;0.57;0.57;;;4.50;99.90;;;;;;5075904;28;20428;-68
2022/01/29 08:02:09;;;;;;;0.80;0.80;;;4.50;99.90;;;;;;5077119;28;20416;-71
2022/01/29 08:04:56;;;;;;;0.40;0.40;;;4.50;99.90;;;;;;5076777;28;20987;-68
2022/01/29 08:07:43;;;;;;;0.47;0.47;;;4.40;99.90;;;;;;5076541;28;20494;-68
2022/01/29 08:10:30;;;;;;;0.60;0.60;;;4.40;99.90;;;;;;5075939;28;20427;-69
2022/01/29 08:13:16;;;;;;;0.40;0.40;;;4.50;99.90;;;;;;5062825;28;20451;-68
2022/01/29 08:16:05;;;;;;;5.53;2.90;;;4.50;99.90;;;;;;5056146;28;20851;-67
2022/01/29 08:18:52;;;;;;;0.50;0.50;;;4.50;99.90;;;;;;5054976;28;20964;-68
2022/01/29 08:21:39;;;;;;;2.63;1.00;;;4.50;99.90;;;;;;5015448;28;20414;-68
2022/01/29 08:24:26;;;;;;;0.40;0.40;;;4.50;99.90;;;;;;5016084;28;20457;-68
2022/01/29 08:27:13;;;;;;;0.80;0.80;;;4.50;99.90;;;;;;5016257;28;20438;-69
2022/01/29 08:30:01;;;;;;;2.83;1.90;;;4.60;99.90;;;;;;5016342;28;20436;-67
2022/01/29 08:32:49;;;;;;;0.40;0.40;;;4.60;99.90;;;;;;5016562;28;20517;-68
2022/01/29 08:35:36;;;;;;;3.07;1.00;;;4.70;99.90;;;;;;5015724;28;21017;-68
2022/01/29 08:38:23;;;;;;;1.67;1.57;;;4.60;99.90;;;;;;5016648;28;20449;-67
2022/01/29 08:41:10;;;;;;;0.77;0.77;;;4.70;99.90;;;;;;5016064;28;20832;-68
2022/01/29 08:43:57;;;;;;;1.80;1.70;;;4.70;99.90;;;;;;5015943;28;20993;-68
2022/01/29 08:46:44;;;;;;;1.27;1.17;;;4.70;99.90;;;;;;5014518;28;20461;-69
2022/01/29 08:49:32;;;;;;;1.50;1.50;;;4.80;99.90;;;;;;5014946;28;20433;-67
2022/01/29 08:52:19;;;;;;;4.33;1.47;;;5.00;99.90;;;;;;5015624;28;20434;-68
2022/01/29 08:55:08;;;;;;;16.50;2.80;;;4.90;99.90;;;;;;5015952;28;20516;-68
2022/01/29 08:57:55;;;;;;;0.60;0.60;;;4.90;99.90;;;;;;5014565;28;21009;-67
2022/01/29 09:00:45;;;;;;;1.73;1.17;;;4.90;99.90;;;;;;5014885;28;20461;-68
2022/01/29 09:03:32;;;;;;;1.27;1.17;;;5.00;99.90;;;;;;5015135;28;20521;-68
2022/01/29 09:06:20;;;;;;;1.27;1.27;;;5.00;99.90;;;;;;5015461;28;20425;-68
2022/01/29 09:09:07;;;;;;;0.60;0.60;;;5.00;99.90;;;;;;5014257;28;20473;-68
2022/01/29 09:11:54;;;;;;;0.53;0.53;;;5.10;99.90;;;;;;5015011;28;20430;-68
2022/01/29 09:14:41;;;;;;;0.60;0.60;;;5.10;99.90;;;;;;5015044;28;20414;-67
2022/01/29 09:17:28;;;;;;;2.77;1.43;;;5.10;99.90;;;;;;5014834;28;20825;-68
2022/01/29 09:20:15;;;;;;;12.03;1.90;;;5.10;99.90;;;;;;5037209;28;20843;-68
2022/01/29 09:23:03;;;;;;;0.87;0.80;;;5.20;99.90;;;;;;5054283;28;20808;-67
2022/01/29 09:25:50;;;;;;;4.93;2.43;;;5.20;99.90;;;;;;5053678;28;20919;-68
2022/01/29 09:28:37;;;;;;;0.97;0.80;;;5.30;99.90;;;;;;5053808;28;20427;-67
2022/01/29 09:31:24;;;;;;;0.40;0.40;;;5.30;99.90;;;;;;5054163;28;20855;-67
2022/01/29 09:34:11;;;;;;;1.87;0.97;;;5.30;99.90;;;;;;5053961;28;20420;-67
2022/01/29 09:36:58;;;;;;;16.03;1.23;;;5.40;99.90;;;;;;5053709;28;20464;-67
2022/01/29 09:39:46;;;;;;;2.70;1.90;;;5.40;99.90;;;;;;5053828;28;20940;-67
2022/01/29 09:42:35;;;;;;;0.40;0.40;;;5.40;99.90;;;;;;5058311;28;20433;-66
2022/01/29 09:45:24;;;;;;;0.47;0.47;;;5.60;99.90;;;;;;5053658;28;20486;-69
2022/01/29 09:48:10;;;;;;;2.60;2.17;;;5.60;99.90;;;;;;5054110;28;20444;-68
2022/01/29 09:50:59;;;;;;;1.20;1.10;;;5.60;99.90;;;;;;5053116;28;20924;-68
2022/01/29 09:53:46;;;;;;;2.03;1.93;;;5.60;99.90;;;;;;5053820;28;20435;-69
2022/01/29 09:56:35;;;;;;;0.90;0.90;;;5.80;99.90;;;;;;5052968;28;20451;-68
2022/01/29 09:59:22;;;;;;;0.50;0.50;;;5.70;99.90;;;;;;5053536;28;20481;-69
2022/01/29 10:02:17;;;;;;;3.10;2.27;;;5.80;99.90;;;;;;5053400;28;20428;-67
2022/01/29 10:05:05;;;;;;;1.10;1.10;;;5.80;99.90;;;;;;5053092;28;20850;-67
2022/01/29 10:08:01;;;;;;;1.93;1.83;;;5.90;99.90;;;;;;5053407;28;20861;-67
2022/01/29 10:10:49;;;;;;;0.40;0.40;;;6.10;99.90;;;;;;5052621;28;20815;-66
2022/01/29 10:13:39;;;;;;;1.20;1.07;;;6.00;99.90;;;;;;5052806;28;20420;-67
2022/01/29 10:16:27;;;;;;;6.63;2.53;;;6.10;99.90;;;;;;5052993;28;20460;-69
2022/01/29 10:19:14;;;;;;;2.73;2.20;;;6.20;99.90;;;;;;5049771;28;20448;-69
2022/01/29 10:22:01;;;;;;;1.23;1.17;;;6.20;99.90;;;;;;5032515;28;20425;-67
2022/01/29 10:24:50;;;;;;;4.93;1.17;;;6.30;99.90;;;;;;5032698;28;20465;-68
2022/01/29 10:27:37;;;;;;;3.90;1.40;;;6.30;99.90;;;;;;5032344;28;20452;-68
2022/01/29 10:30:30;;;;;;;2.00;1.63;;;6.30;99.90;;;;;;5032520;28;20571;-67
2022/01/29 10:33:19;;;;;;;0.83;0.80;;;6.50;99.90;;;;;;5033221;28;20813;-67
2022/01/29 10:36:08;;;;;;;4.10;2.20;;;6.50;99.90;;;;;;5032695;28;20422;-68
2022/01/29 10:38:57;;;;;;;0.40;0.40;;;6.50;99.90;;;;;;5031896;28;20453;-68
2022/01/29 10:41:44;;;;;;;3.63;2.80;;;6.60;99.90;;;;;;5032230;28;20937;-68
2022/01/29 10:44:42;;;;;;;0.40;0.40;;;6.80;99.90;;;;;;5031739;28;20879;-68
2022/01/29 10:47:31;;;;;;;1.90;1.63;;;6.80;99.90;;;;;;5031237;28;20972;-68
2022/01/29 10:50:18;;;;;;;2.50;2.20;;;6.90;99.90;;;;;;5031833;28;20422;-68
2022/01/29 10:53:24;;;;;;;1.00;0.70;;;6.90;99.90;;;;;;5031903;28;20463;-68
2022/01/29 10:56:11;;;;;;;1.13;1.13;;;6.90;99.90;;;;;;5031361;28;20421;-68
2022/01/29 10:58:58;;;;;;;1.27;1.17;;;6.90;99.90;;;;;;5031368;28;20417;-68
2022/01/29 11:01:51;;;;;;;1.03;0.83;;;6.90;99.90;;;;;;5031931;28;20506;-68
2022/01/29 11:04:41;;;;;;;4.20;2.53;;;7.10;99.90;;;;;;5031817;28;20495;-67
2022/01/29 11:07:29;;;;;;;0.90;0.80;;;7.10;99.90;;;;;;5031328;28;20465;-67
2022/01/29 11:10:17;;;;;;;2.60;2.20;;;7.10;99.90;;;;;;5031263;28;20845;-67
2022/01/29 11:13:04;;;;;;;0.97;0.97;;;7.10;99.90;;;;;;5032121;28;20933;-68
2022/01/29 11:15:52;;;;;;;1.17;1.07;;;7.10;99.90;;;;;;5035992;28;20422;-67
2022/01/29 11:18:39;;;;;;;2.87;2.17;;;7.10;99.90;;;;;;5036452;28;20789;-68
2022/01/29 11:21:28;;;;;;;1.10;1.10;;;7.20;99.90;;;;;;5018358;28;20464;-68
2022/01/29 11:24:19;;;;;;;4.10;2.50;;;7.20;99.90;;;;;;5017024;28;20930;-67
2022/01/29 11:27:20;;;;;;;0.50;0.50;;;7.30;99.90;;;;;;5017242;28;20458;-67
2022/01/29 11:30:12;;;;;;;0.93;0.93;;;7.40;99.90;;;;;;5017361;28;20476;-69
2022/01/29 11:33:01;;;;;;;2.73;2.27;;;7.50;99.90;;;;;;5016693;28;21330;-69
2022/01/29 11:35:53;;;;;;;1.60;1.00;;;7.50;99.90;;;;;;5016040;28;20934;-68
2022/01/29 11:38:41;;;;;;;1.17;1.17;;;7.50;99.90;;;;;;5016274;28;20580;-69
2022/01/29 11:41:28;;;;;;;1.63;1.53;;;7.50;99.90;;;;;;5015998;28;20426;-68
2022/01/29 11:44:25;;;;;;;1.73;1.63;;;7.60;99.90;;;;;;5016593;28;20495;-67
2022/01/29 11:47:45;;;;;;;7.43;1.20;;;7.60;99.90;;;;;;5015972;28;20496;-68
2022/01/29 11:50:44;;;;;;;3.50;2.30;;;7.70;99.90;;;;;;5016245;28;20421;-68
2022/01/29 11:56:29;;;;;;;1.30;1.20;;;7.70;99.90;;;;;;5131611;27;21166;-68
2022/01/29 11:59:40;;;;;;;1.47;1.00;;;7.80;99.90;;;;;;5131052;28;20469;-69
2022/01/29 12:02:39;;;;;;;0.63;0.63;;;7.70;99.90;;;;;;5122086;27;20443;-69
2022/01/29 12:05:30;;;;;;;0.40;0.40;;;7.70;99.90;;;;;;5131095;28;20488;-68
2022/01/29 12:08:20;;;;;;;1.00;0.93;;;7.80;99.90;;;;;;5130771;28;20490;-73
2022/01/29 12:11:10;;;;;;;1.53;1.43;;;7.80;99.90;;;;;;5130473;28;20417;-69
2022/01/29 12:14:28;;;;;;;0.83;0.83;;;7.80;99.90;;;;;;5130101;28;20474;-69
2022/01/29 12:17:33;;;;;;;1.50;1.27;;;7.80;99.90;;;;;;5130171;28;20482;-68
2022/01/29 12:20:22;;;;;;;1.20;0.80;;;7.90;99.90;;;;;;5129027;28;20435;-68
2022/01/29 12:23:09;;;;;;;0.40;0.40;;;7.90;99.90;;;;;;5130792;27;20409;-68
2022/01/29 12:25:57;;;;;;;2.00;1.57;;;7.90;99.90;;;;;;5131310;28;20428;-69
2022/01/29 12:28:49;;;;;;;1.73;1.27;;;8.00;99.90;;;;;;5129808;28;20941;-69
2022/01/29 12:31:48;;;;;;;2.83;2.53;;;8.00;99.90;;;;;;5130172;27;20478;-69
2022/01/29 12:34:36;;;;;;;0.40;0.40;;;8.10;99.90;;;;;;5130646;28;20893;-70
2022/01/29 12:37:22;;;;;;;2.93;0.70;;;8.10;99.90;;;;;;5128734;28;20440;-68
2022/01/29 12:40:19;;;;;;;2.17;1.67;;;8.10;99.90;;;;;;5130016;28;20451;-69
2022/01/29 12:43:22;;;;;;;1.90;1.23;;;8.20;99.90;;;;;;5128930;28;20421;-69
2022/01/29 12:46:11;;;;;;;2.70;1.50;;;8.20;99.90;;;;;;5130642;27;20499;-69
2022/01/29 12:49:02;;;;;;;4.73;1.80;;;8.30;99.90;;;;;;5130001;28;20425;-68
2022/01/29 12:51:51;;;;;;;1.63;0.97;;;8.30;99.90;;;;;;5128267;27;20421;-68
2022/01/29 12:54:38;;;;;;;1.00;0.70;;;8.40;99.90;;;;;;5129433;28;20841;-69
2022/01/29 12:57:26;;;;;;;0.87;0.47;;;8.40;99.90;;;;;;5128995;28;20440;-69
2022/01/29 13:00:16;;;;;;;1.17;1.07;;;8.50;99.90;;;;;;5128982;28;20428;-69
2022/01/29 13:03:08;;;;;;;0.97;0.80;;;8.60;99.90;;;;;;5129217;28;20412;-69
2022/01/29 13:06:05;;;;;;;0.50;0.50;;;8.60;99.90;;;;;;5126045;28;20844;-68
2022/01/29 13:08:51;;;;;;;1.27;1.03;;;8.70;99.90;;;;;;5115320;28;20802;-69
2022/01/29 13:11:38;;;;;;;2.83;2.10;;;8.80;99.90;;;;;;5115394;28;20463;-69
2022/01/29 13:14:25;;;;;;;1.47;1.37;;;9.00;99.90;;;;;;5117407;28;20831;-69
2022/01/29 13:17:12;;;;;;;0.70;0.70;;;9.10;99.90;;;;;;5115954;28;20488;-68
2022/01/29 13:20:03;;;;;;;0.40;0.40;;;9.20;99.90;;;;;;5116704;28;20440;-69
2022/01/29 13:22:52;;;;;;;0.73;0.70;;;9.30;99.90;;;;;;5117065;28;20436;-68
2022/01/29 13:25:40;;;;;;;1.43;1.23;;;9.20;99.90;;;;;;5116507;28;20475;-68
2022/01/29 13:28:35;;;;;;;1.73;0.70;;;9.20;99.90;;;;;;5116036;28;20449;-69
2022/01/29 13:31:22;;;;;;;1.47;0.90;;;9.10;99.90;;;;;;5116048;28;20487;-68
2022/01/29 13:34:24;;;;;;;0.90;0.70;;;9.10;99.90;;;;;;5116168;27;20447;-69
2022/01/29 13:37:32;;;;;;;0.70;0.70;;;9.10;99.90;;;;;;5115608;28;20512;-69
2022/01/29 13:40:20;;;;;;;0.50;0.50;;;9.10;99.90;;;;;;5115661;28;20418;-68
2022/01/29 13:43:09;;;;;;;0.70;0.60;;;9.10;99.90;;;;;;5116227;28;20437;-68
2022/01/29 13:45:57;;;;;;;0.60;0.60;;;9.20;99.90;;;;;;5116588;27;20494;-69
2022/01/29 13:48:47;;;;;;;2.00;0.90;;;9.10;99.90;;;;;;5118123;27;20413;-69
2022/01/29 13:51:36;;;;;;;1.67;0.70;;;9.20;99.90;;;;;;5119613;28;20428;-68
2022/01/29 13:54:24;;;;;;;0.83;0.50;;;9.30;99.90;;;;;;5117980;28;20437;-68
2022/01/29 13:57:12;;;;;;;0.40;0.40;;;9.10;99.90;;;;;;5117415;28;20437;-68
2022/01/29 14:00:01;;;;;;;1.47;0.60;;;9.20;99.90;;;;;;5118819;28;20846;-67
2022/01/29 14:02:48;;;;;;;0.40;0.40;;;9.20;99.90;;;;;;5116809;28;20429;-69
2022/01/29 14:05:35;;;;;;;0.63;0.63;;;9.20;99.90;;;;;;5116327;27;20420;-69
2022/01/29 14:08:23;;;;;;;0.50;0.50;;;9.20;99.90;;;;;;5116251;28;20473;-68
2022/01/29 14:11:15;;;;;;;1.00;0.83;;;9.20;99.90;;;;;;5117628;28;20432;-69
2022/01/29 14:14:03;;;;;;;0.40;0.40;;;9.10;99.90;;;;;;5115673;28;20575;-68
2022/01/29 14:16:50;;;;;;;1.40;0.93;;;9.10;99.90;;;;;;5116508;28;20569;-68
2022/01/29 14:19:39;;;;;;;0.80;0.67;;;9.10;99.90;;;;;;5116189;28;20438;-68
2022/01/29 14:22:28;;;;;;;0.60;0.60;;;9.20;99.90;;;;;;5115939;28;20474;-69
2022/01/29 14:25:19;;;;;;;0.50;0.50;;;9.10;99.90;;;;;;5117691;28;20445;-69
2022/01/29 14:28:06;;;;;;;1.27;1.17;;;9.10;99.90;;;;;;5117730;28;20992;-68
2022/01/29 14:30:54;;;;;;;0.70;0.70;;;9.10;99.90;;;;;;5114213;28;20434;-70
2022/01/29 14:33:41;;;;;;;0.80;0.70;;;9.10;99.90;;;;;;5114257;28;20440;-69
2022/01/29 14:36:28;;;;;;;0.40;0.40;;;9.10;99.90;;;;;;5113469;28;20909;-69
2022/01/29 14:39:17;;;;;;;0.70;0.70;;;9.00;99.90;;;;;;5113065;28;20444;-68
2022/01/29 14:42:07;;;;;;;0.40;0.40;;;8.90;99.90;;;;;;5113884;28;20567;-69
2022/01/29 14:44:55;;;;;;;1.13;1.03;;;8.90;99.90;;;;;;5113602;28;20918;-68
2022/01/29 14:47:46;;;;;;;2.93;1.90;;;8.80;99.90;;;;;;5112885;28;20980;-69
2022/01/29 14:50:33;;;;;;;0.50;0.50;;;8.70;99.90;;;;;;5113142;28;20573;-69
2022/01/29 14:53:22;;;;;;;0.50;0.50;;;8.70;99.90;;;;;;5113966;28;20428;-69
2022/01/29 14:56:08;;;;;;;0.80;0.60;;;8.60;99.90;;;;;;5113114;28;20461;-69
2022/01/29 14:58:56;;;;;;;0.77;0.77;;;8.60;99.90;;;;;;5114203;28;20428;-67
2022/01/29 15:01:44;;;;;;;0.40;0.40;;;8.80;99.90;;;;;;5113575;28;20911;-68